createdAt,value
2022-11-18T00:00:05.496Z,11.70
2022-11-18T00:02:57.701Z,12.00
2022-11-18T00:05:29.934Z,10.50
2022-11-18T00:08:02.069Z,11.90
2022-11-18T00:10:34.432Z,10.60
2022-11-18T00:13:24.443Z,9.50
2022-11-18T00:16:04.078Z,8.80
2022-11-18T00:18:37.179Z,8.50
2022-11-18T00:21:11.569Z,8.80
2022-11-18T00:23:43.967Z,14.60
2022-11-18T00:26:19.714Z,9.90
2022-11-18T00:28:51.828Z,12.30
2022-11-18T00:31:24.008Z,28.60
2022-11-18T00:33:56.717Z,9.80
2022-11-18T00:36:30.008Z,15.90
2022-11-18T00:39:02.152Z,13.10
2022-11-18T00:41:48.656Z,11.90
2022-11-18T00:44:20.873Z,21.40
2022-11-18T00:46:53.092Z,13.90
2022-11-18T00:49:25.382Z,9.90
2022-11-18T00:51:57.558Z,10.60
2022-11-18T00:54:29.710Z,15.60
2022-11-18T00:57:02.022Z,10.80
2022-11-18T00:59:37.141Z,11.50
2022-11-18T01:02:09.680Z,12.60
2022-11-18T01:04:42.028Z,13.20
2022-11-18T01:07:14.398Z,18.70
2022-11-18T01:09:46.602Z,21.00
2022-11-18T01:12:36.642Z,16.40
2022-11-18T01:15:13.652Z,9.90
2022-11-18T01:17:45.800Z,9.10
2022-11-18T01:20:18.817Z,12.00
2022-11-18T01:22:50.967Z,21.70
2022-11-18T01:25:23.410Z,11.90
2022-11-18T01:27:55.687Z,9.60
2022-11-18T01:30:27.927Z,15.10
2022-11-18T01:33:01.056Z,13.00
2022-11-18T01:35:35.274Z,12.00
2022-11-18T01:38:11.137Z,15.40
2022-11-18T01:40:43.748Z,10.90
2022-11-18T01:43:19.704Z,13.10
2022-11-18T01:45:54.310Z,21.10
2022-11-18T01:48:29.900Z,16.70
2022-11-18T01:51:07.139Z,15.20
2022-11-18T01:53:42.450Z,10.30
2022-11-18T01:56:19.122Z,10.00
2022-11-18T01:58:57.764Z,10.80
2022-11-18T02:01:30.163Z,9.90
2022-11-18T02:04:02.508Z,9.70
2022-11-18T02:06:35.249Z,10.60
2022-11-18T02:09:08.621Z,15.30
2022-11-18T02:11:54.524Z,20.50
2022-11-18T02:14:29.297Z,16.20
2022-11-18T02:17:13.217Z,18.50
2022-11-18T02:20:17.937Z,13.30
2022-11-18T02:23:14.801Z,13.30
2022-11-18T02:26:07.594Z,15.80
2022-11-18T02:28:50.779Z,13.30
2022-11-18T02:31:29.213Z,12.10
2022-11-18T02:34:08.994Z,15.10
2022-11-18T02:36:48.018Z,11.70
2022-11-18T02:39:29.053Z,14.10
2022-11-18T02:42:04.189Z,11.80
2022-11-18T02:44:39.418Z,11.30
2022-11-18T02:47:15.431Z,13.30
2022-11-18T02:49:53.079Z,12.50
2022-11-18T02:52:28.029Z,17.40
2022-11-18T02:55:01.949Z,14.20
2022-11-18T02:57:36.392Z,14.90
2022-11-18T03:00:13.015Z,12.50
2022-11-18T03:02:48.174Z,13.50
2022-11-18T03:05:33.980Z,13.90
2022-11-18T03:08:12.402Z,12.00
2022-11-18T03:10:51.075Z,13.60
2022-11-18T03:13:30.256Z,13.40
2022-11-18T03:16:06.036Z,14.90
2022-11-18T03:18:46.990Z,14.60
2022-11-18T03:21:24.449Z,15.30
2022-11-18T03:24:05.815Z,23.60
2022-11-18T03:26:41.061Z,15.90
2022-11-18T03:29:19.739Z,17.20
2022-11-18T03:31:55.695Z,16.30
2022-11-18T03:34:31.791Z,21.00
2022-11-18T03:37:10.389Z,17.10
2022-11-18T03:39:49.576Z,16.70
2022-11-18T03:42:26.532Z,18.50
2022-11-18T03:45:03.528Z,18.10
2022-11-18T03:47:41.614Z,14.20
2022-11-18T03:50:18.566Z,18.80
2022-11-18T03:52:54.845Z,19.30
2022-11-18T03:55:33.733Z,19.30
2022-11-18T03:58:11.498Z,16.10
2022-11-18T04:00:47.313Z,19.00
2022-11-18T04:03:20.739Z,18.60
2022-11-18T04:05:57.754Z,18.30
2022-11-18T04:08:34.911Z,18.70
2022-11-18T04:11:35.253Z,18.30
2022-11-18T04:14:10.563Z,16.60
2022-11-18T04:16:45.107Z,18.20
2022-11-18T04:19:17.301Z,25.50
2022-11-18T04:21:50.623Z,18.70
2022-11-18T04:24:22.772Z,20.10
2022-11-18T04:26:54.863Z,18.80
2022-11-18T04:29:27.051Z,18.00
2022-11-18T04:31:59.591Z,25.10
2022-11-18T04:34:34.837Z,19.50
2022-11-18T04:37:07.200Z,19.40
2022-11-18T04:39:39.280Z,17.30
2022-11-18T04:42:14.262Z,17.60
2022-11-18T04:44:46.455Z,17.70
2022-11-18T04:47:18.535Z,15.50
2022-11-18T04:49:50.902Z,15.10
2022-11-18T04:52:23.040Z,15.30
2022-11-18T04:54:55.123Z,13.40
2022-11-18T04:57:27.264Z,14.00
2022-11-18T04:59:59.473Z,14.60
2022-11-18T05:02:31.609Z,14.90
2022-11-18T05:05:03.667Z,13.30
2022-11-18T05:07:35.747Z,15.10
2022-11-18T05:10:09.483Z,18.40
2022-11-18T05:12:51.008Z,23.80
2022-11-18T05:15:25.010Z,15.10
2022-11-18T05:17:57.488Z,17.90
2022-11-18T05:20:29.659Z,23.70
2022-11-18T05:23:02.116Z,59.00
2022-11-18T05:25:34.215Z,35.60
2022-11-18T05:28:07.758Z,18.60
2022-11-18T05:30:40.425Z,17.20
2022-11-18T05:33:12.573Z,14.80
2022-11-18T05:35:44.853Z,14.00
2022-11-18T05:38:16.994Z,16.00
2022-11-18T05:40:49.129Z,15.50
2022-11-18T05:43:21.555Z,14.20
2022-11-18T05:45:54.778Z,19.20
2022-11-18T05:48:27.359Z,17.20
2022-11-18T05:50:59.489Z,15.50
2022-11-18T05:53:31.608Z,16.30
2022-11-18T05:56:10.623Z,23.80
2022-11-18T05:58:42.829Z,18.20
2022-11-18T06:01:19.622Z,16.20
2022-11-18T06:03:52.461Z,17.10
2022-11-18T06:06:25.952Z,16.70
2022-11-18T06:09:03.688Z,14.10
2022-11-18T06:11:41.587Z,21.80
2022-11-18T06:14:17.914Z,39.70
2022-11-18T06:16:53.584Z,20.00
2022-11-18T06:19:29.353Z,16.90
2022-11-18T06:22:02.242Z,24.60
2022-11-18T06:24:34.716Z,18.30
2022-11-18T06:27:07.355Z,19.70
2022-11-18T06:29:39.639Z,18.40
2022-11-18T06:32:12.246Z,18.30
2022-11-18T06:34:44.508Z,18.30
2022-11-18T06:37:17.929Z,19.80
2022-11-18T06:39:50.579Z,14.60
2022-11-18T06:42:36.614Z,16.00
2022-11-18T06:45:10.435Z,15.60
2022-11-18T06:47:42.868Z,18.90
2022-11-18T06:50:15.277Z,22.10
2022-11-18T06:52:47.737Z,18.60
2022-11-18T06:55:19.844Z,19.80
2022-11-18T06:57:51.991Z,17.70
2022-11-18T07:00:24.805Z,16.30
2022-11-18T07:02:56.954Z,19.70
2022-11-18T07:05:28.990Z,20.20
2022-11-18T07:08:01.069Z,28.50
2022-11-18T07:10:33.161Z,19.20
2022-11-18T07:13:05.697Z,18.20
2022-11-18T07:15:37.864Z,16.50
2022-11-18T07:18:09.959Z,19.30
2022-11-18T07:20:42.502Z,18.40
2022-11-18T07:23:14.556Z,15.90
2022-11-18T07:25:46.641Z,15.80
2022-11-18T07:28:18.668Z,15.90
2022-11-18T07:30:50.736Z,14.60
2022-11-18T07:33:22.769Z,15.10
2022-11-18T07:35:54.950Z,17.50
2022-11-18T07:38:27.314Z,17.80
2022-11-18T07:41:06.500Z,17.90
2022-11-18T07:43:40.272Z,17.90
2022-11-18T07:46:14.331Z,17.10
2022-11-18T07:48:48.790Z,16.40
2022-11-18T07:51:23.727Z,16.60
2022-11-18T07:53:55.901Z,16.80
2022-11-18T07:56:28.361Z,14.20
2022-11-18T07:59:00.656Z,19.70
2022-11-18T08:01:33.410Z,17.10
2022-11-18T08:04:09.765Z,20.40
2022-11-18T08:06:42.403Z,16.70
2022-11-18T08:09:18.282Z,21.90
2022-11-18T08:11:50.952Z,18.00
2022-11-18T08:14:24.367Z,20.10
2022-11-18T08:16:59.428Z,18.00
2022-11-18T08:19:31.539Z,18.70
2022-11-18T08:22:03.584Z,20.20
2022-11-18T08:24:35.739Z,20.90
2022-11-18T08:27:08.213Z,21.50
2022-11-18T08:29:40.858Z,16.50
2022-11-18T08:32:13.090Z,15.60
2022-11-18T08:34:45.779Z,16.40
2022-11-18T08:37:18.214Z,13.90
2022-11-18T08:39:50.731Z,16.30
2022-11-18T08:42:24.482Z,14.60
2022-11-18T08:45:00.353Z,14.50
2022-11-18T08:47:32.628Z,16.30
2022-11-18T08:50:05.165Z,14.80
2022-11-18T08:52:37.611Z,15.40
2022-11-18T08:55:10.564Z,13.60
2022-11-18T08:57:42.899Z,15.40
2022-11-18T09:00:17.286Z,18.60
2022-11-18T09:02:49.538Z,16.70
2022-11-18T09:05:21.810Z,17.40
2022-11-18T09:07:54.085Z,19.60
2022-11-18T09:10:26.276Z,21.30
2022-11-18T09:17:07.787Z,18.00
2022-11-18T09:19:49.242Z,17.50
2022-11-18T09:23:11.322Z,18.80
2022-11-18T09:29:59.044Z,17.20
2022-11-18T09:32:31.378Z,16.70
2022-11-18T09:35:17.408Z,16.30
2022-11-18T09:37:52.567Z,15.40
2022-11-18T09:41:31.180Z,16.00
2022-11-18T09:54:03.002Z,18.70
2022-11-18T09:56:35.220Z,14.60
2022-11-18T09:59:08.060Z,16.00
2022-11-18T10:19:58.084Z,31.40
2022-11-18T10:31:31.812Z,20.00
2022-11-18T10:34:04.713Z,20.10
2022-11-18T10:36:44.013Z,17.50
2022-11-18T10:39:17.941Z,18.90
2022-11-18T10:47:01.211Z,34.10
2022-11-18T10:54:27.791Z,24.80
2022-11-18T10:58:19.368Z,29.60
2022-11-18T11:00:52.362Z,21.60
2022-11-18T11:08:48.268Z,19.30
2022-11-18T11:15:39.614Z,18.20
2022-11-18T11:22:59.010Z,25.20
2022-11-18T11:30:28.267Z,21.90
2022-11-18T11:34:23.103Z,26.80
2022-11-18T11:45:03.272Z,19.40
2022-11-18T12:00:17.837Z,25.10
2022-11-18T12:03:35.204Z,28.50
2022-11-18T12:06:09.151Z,34.90
2022-11-18T12:12:55.328Z,24.50
2022-11-18T12:15:47.549Z,24.40
2022-11-18T12:18:26.200Z,22.90
2022-11-18T12:20:58.597Z,22.90
2022-11-18T12:23:31.630Z,24.80
2022-11-18T12:26:07.565Z,25.50
2022-11-18T12:28:42.352Z,24.00
2022-11-18T12:31:35.979Z,25.00
2022-11-18T12:34:21.637Z,32.50
2022-11-18T12:36:55.414Z,23.90
2022-11-18T12:40:01.241Z,26.80
2022-11-18T12:43:03.101Z,32.00
2022-11-18T12:45:52.585Z,31.40
2022-11-18T12:48:40.195Z,35.20
2022-11-18T12:51:48.972Z,23.00
2022-11-18T12:54:32.157Z,24.20
2022-11-18T12:57:14.854Z,22.80
2022-11-18T12:59:47.131Z,28.60
2022-11-18T13:02:27.689Z,23.80
2022-11-18T13:08:04.687Z,30.30
2022-11-18T13:10:40.484Z,27.10
2022-11-18T13:13:25.972Z,33.30
2022-11-18T13:16:17.564Z,24.20
2022-11-18T13:18:54.215Z,21.60
2022-11-18T13:21:46.291Z,23.00
2022-11-18T13:24:20.660Z,24.00
2022-11-18T13:26:58.537Z,23.00
2022-11-18T13:29:58.736Z,25.20
2022-11-18T13:32:31.568Z,25.80
2022-11-18T13:35:13.008Z,27.80
2022-11-18T13:37:54.324Z,26.70
2022-11-18T13:40:29.221Z,27.60
2022-11-18T13:43:01.375Z,27.50
2022-11-18T13:45:35.406Z,32.60
2022-11-18T13:48:16.126Z,29.30
2022-11-18T13:50:55.184Z,29.00
2022-11-18T13:53:32.252Z,26.30
2022-11-18T13:56:07.746Z,25.10
2022-11-18T14:01:36.667Z,25.90
2022-11-18T14:04:17.459Z,33.20
2022-11-18T14:06:49.903Z,30.70
2022-11-18T14:09:28.190Z,29.00
2022-11-18T14:12:07.491Z,27.40
2022-11-18T14:14:41.757Z,27.30
2022-11-18T14:17:22.757Z,24.20
2022-11-18T14:19:56.935Z,28.40
2022-11-18T14:22:30.951Z,25.90
2022-11-18T14:25:06.100Z,26.50
2022-11-18T14:27:40.711Z,23.00
2022-11-18T14:30:34.980Z,23.20
2022-11-18T14:46:38.682Z,21.00
2022-11-18T14:49:59.826Z,29.90
2022-11-18T14:52:32.003Z,21.00
2022-11-18T14:55:04.128Z,21.20
2022-11-18T14:57:42.906Z,26.70
2022-11-18T15:00:48.945Z,23.90
2022-11-18T15:03:21.226Z,19.90
2022-11-18T15:05:54.569Z,18.10
2022-11-18T15:08:26.872Z,17.60
2022-11-18T15:16:19.618Z,14.80
2022-11-18T15:23:49.057Z,14.70
2022-11-18T15:35:29.147Z,15.50
2022-11-18T15:38:08.076Z,14.90
2022-11-18T15:41:07.024Z,13.00
2022-11-18T15:44:11.365Z,15.30
2022-11-18T15:46:50.515Z,14.20
2022-11-18T15:57:43.829Z,26.90
2022-11-18T16:01:12.683Z,13.00
2022-11-18T16:03:44.940Z,12.90
2022-11-18T16:06:17.171Z,11.30
2022-11-18T16:09:00.010Z,11.30
2022-11-18T16:16:23.537Z,16.90
2022-11-18T16:18:58.318Z,15.10
2022-11-18T16:21:48.807Z,11.00
2022-11-18T16:24:23.600Z,10.80
2022-11-18T16:27:44.971Z,10.90
2022-11-18T16:35:15.624Z,12.90
2022-11-18T16:37:54.042Z,14.90
2022-11-18T16:40:28.605Z,28.30
2022-11-18T16:43:52.762Z,14.60
2022-11-18T16:47:35.733Z,14.60
2022-11-18T16:50:08.927Z,16.80
2022-11-18T17:01:31.661Z,19.60
2022-11-18T17:04:06.258Z,14.70
2022-11-18T17:07:39.987Z,12.00
2022-11-18T17:10:21.447Z,11.30
2022-11-18T17:23:10.426Z,8.60
2022-11-18T17:26:23.773Z,11.10
2022-11-18T17:28:57.996Z,11.00
2022-11-18T17:32:35.548Z,11.20
2022-11-18T17:35:14.308Z,11.70
2022-11-18T17:37:46.836Z,16.20
2022-11-18T17:40:25.093Z,13.00
2022-11-18T17:42:57.200Z,15.40
2022-11-18T17:49:37.289Z,11.50
2022-11-18T17:52:09.574Z,11.10
2022-11-18T17:58:45.044Z,10.60
2022-11-18T18:07:22.590Z,11.70
2022-11-18T18:09:56.294Z,10.40
2022-11-18T18:16:55.266Z,15.70
2022-11-18T18:19:27.528Z,10.40
2022-11-18T18:26:59.269Z,11.70
2022-11-18T18:34:30.750Z,12.30
2022-11-18T18:37:09.120Z,12.70
2022-11-18T18:39:41.307Z,14.90
2022-11-18T18:42:14.326Z,16.60
2022-11-18T18:48:54.477Z,15.10
2022-11-18T18:51:27.091Z,15.70
2022-11-18T18:54:06.970Z,16.20
2022-11-18T19:01:34.780Z,15.10
2022-11-18T19:12:29.715Z,21.30
2022-11-18T19:16:23.909Z,22.80
2022-11-18T19:19:02.633Z,21.90
2022-11-18T19:21:35.487Z,20.30
2022-11-18T19:27:26.559Z,20.20
2022-11-18T19:29:59.267Z,19.10
2022-11-18T19:32:31.856Z,19.20
2022-11-18T19:44:01.714Z,18.10
2022-11-18T19:47:11.489Z,19.30
2022-11-18T19:49:43.658Z,15.10
2022-11-18T19:52:15.922Z,17.60
2022-11-18T19:59:20.493Z,19.70
2022-11-18T20:02:22.226Z,18.70
2022-11-18T20:08:59.264Z,16.90
2022-11-18T20:20:52.526Z,15.90
2022-11-18T20:23:24.956Z,17.70
2022-11-18T20:26:45.136Z,16.30
2022-11-18T20:30:00.200Z,16.20
2022-11-18T20:41:30.681Z,23.10
2022-11-18T20:44:11.700Z,20.60
2022-11-18T20:56:45.057Z,19.20
2022-11-18T20:59:17.814Z,15.10
2022-11-18T21:01:50.190Z,16.00
2022-11-18T21:04:29.339Z,12.80
2022-11-18T21:10:46.258Z,12.80
2022-11-18T21:22:13.036Z,15.80
2022-11-18T21:24:47.435Z,16.00
2022-11-18T21:32:11.016Z,14.00
2022-11-18T21:38:51.237Z,14.30
2022-11-18T21:41:31.200Z,18.60
2022-11-18T21:44:06.345Z,17.90
2022-11-18T21:47:29.255Z,16.80
2022-11-18T21:50:10.063Z,16.20
2022-11-18T21:52:42.430Z,24.00
2022-11-18T21:59:38.881Z,14.70
2022-11-18T22:03:19.119Z,17.00
2022-11-18T22:05:59.047Z,16.00
2022-11-18T22:08:50.058Z,17.00
2022-11-18T22:11:28.813Z,14.70
2022-11-18T22:14:01.117Z,16.40
2022-11-18T22:25:25.509Z,15.00
2022-11-18T22:28:02.684Z,15.20
2022-11-18T22:30:34.809Z,18.70
2022-11-18T22:33:07.194Z,22.50
2022-11-18T22:40:38.602Z,21.10
2022-11-18T22:43:12.112Z,18.70
2022-11-18T22:45:50.294Z,25.90
2022-11-18T22:48:22.467Z,30.00
2022-11-18T23:04:24.219Z,19.90
2022-11-18T23:07:48.393Z,38.20
2022-11-18T23:10:20.817Z,25.20
2022-11-18T23:13:17.988Z,23.10
2022-11-18T23:19:59.508Z,26.00
2022-11-18T23:22:31.709Z,20.10
2022-11-18T23:25:03.808Z,20.10
2022-11-18T23:27:35.985Z,19.40
2022-11-18T23:30:15.647Z,38.70
2022-11-18T23:32:47.745Z,24.80
2022-11-18T23:35:26.599Z,22.30
2022-11-18T23:37:58.877Z,21.50
2022-11-18T23:44:52.917Z,31.10
2022-11-18T23:47:25.091Z,20.10
2022-11-18T23:59:37.875Z,19.60
